Time;durP1;ratioP1;P1;durP2;ratioP2;P2;SDS_P1;SDS_P2;PMS_P1;PMS_P2;Temp;Humidity;BMP_temperature;BMP_pressure;BME280_temperature;BME280_humidity;BME280_pressure;Samples;Min_cycle;Max_cycle;Signal;HPM_P1;HPM_P2
2022/02/22 00:01:49;;;;;;;39.88;5.88;;;;;;;5.50;83.73;101657.22;5053741;28;20029;-73
2022/02/22 00:04:14;;;;;;;29.00;4.38;;;;;;;5.42;84.44;101655.31;5036194;28;20028;-72
2022/02/22 00:06:40;;;;;;;35.83;4.70;;;;;;;5.38;85.25;101654.78;5053979;28;20025;-73
2022/02/22 00:09:05;;;;;;;36.13;4.47;;;;;;;5.38;84.76;101662.47;5053683;28;20113;-73
2022/02/22 00:11:30;;;;;;;34.63;4.00;;;;;;;5.37;85.73;101652.31;5053823;28;20025;-73
2022/02/22 00:13:55;;;;;;;35.08;4.45;;;;;;;5.41;84.63;101646.00;5053390;28;20052;-73
2022/02/22 00:16:21;;;;;;;38.97;5.35;;;;;;;5.40;84.76;101654.63;5053703;28;20067;-73
2022/02/22 00:18:46;;;;;;;38.58;4.72;;;;;;;5.33;85.30;101661.22;5035980;28;20025;-72
2022/02/22 00:21:12;;;;;;;34.30;4.60;;;;;;;5.35;85.10;101661.88;5035701;28;20457;-73
2022/02/22 00:23:38;;;;;;;41.05;4.47;;;;;;;5.32;85.28;101651.91;5035871;28;20029;-73
2022/02/22 00:26:04;;;;;;;25.77;4.05;;;;;;;5.25;85.33;101673.88;5053499;28;20076;-72
2022/02/22 00:28:30;;;;;;;32.08;4.38;;;;;;;5.28;85.62;101689.81;5035864;28;20021;-72
2022/02/22 00:30:55;;;;;;;39.63;4.72;;;;;;;5.18;85.45;101682.09;5053570;28;20025;-73
2022/02/22 00:33:20;;;;;;;34.88;4.63;;;;;;;5.27;85.94;101697.63;5053144;28;20036;-72
2022/02/22 00:35:46;;;;;;;37.58;3.97;;;;;;;5.24;85.27;101696.16;5034970;28;20029;-73
2022/02/22 00:38:11;;;;;;;31.10;4.93;;;;;;;5.28;84.61;101697.50;5035945;28;20484;-72
2022/02/22 00:40:37;;;;;;;38.45;4.53;;;;;;;5.26;84.68;101703.69;5053929;28;20025;-73
2022/02/22 00:43:02;;;;;;;28.50;3.92;;;;;;;5.28;85.03;101709.50;5053785;28;20025;-72
2022/02/22 00:45:27;;;;;;;30.20;4.22;;;;;;;5.27;85.13;101716.38;5035385;28;20033;-72
2022/02/22 00:47:53;;;;;;;35.00;4.72;;;;;;;5.26;85.13;101707.06;5035471;28;20424;-72
2022/02/22 00:50:18;;;;;;;38.78;3.88;;;;;;;5.25;85.30;101709.75;5035338;28;20488;-74
2022/02/22 00:52:44;;;;;;;31.38;4.35;;;;;;;5.24;85.35;101728.66;5053323;28;20040;-73
2022/02/22 00:55:10;;;;;;;38.20;4.30;;;;;;;5.12;86.31;101720.22;5035129;28;20164;-73
2022/02/22 00:57:37;;;;;;;34.20;4.57;;;;;;;5.21;85.43;101724.59;5053282;28;20029;-73
2022/02/22 01:00:04;;;;;;;34.67;4.60;;;;;;;5.19;85.44;101723.91;5053621;28;20017;-73
2022/02/22 01:02:29;;;;;;;29.67;3.55;;;;;;;5.28;84.72;101730.81;5053203;28;20029;-73
2022/02/22 01:04:55;;;;;;;27.83;4.80;;;;;;;5.27;85.12;101739.44;5053316;28;20019;-72
2022/02/22 01:07:21;;;;;;;28.77;3.88;;;;;;;5.31;85.58;101730.56;5053107;28;20028;-72
2022/02/22 01:09:47;;;;;;;34.28;3.72;;;;;;;5.32;85.38;101728.78;5035511;28;20060;-72
2022/02/22 01:12:14;;;;;;;29.38;4.25;;;;;;;5.30;85.14;101733.25;5053502;28;20105;-73
2022/02/22 01:14:39;;;;;;;41.08;5.40;;;;;;;5.14;85.08;101741.41;5052915;28;20496;-72
2022/02/22 01:17:05;;;;;;;31.48;4.65;;;;;;;5.17;85.18;101733.47;5053274;28;20025;-73
2022/02/22 01:19:32;;;;;;;35.28;3.80;;;;;;;5.21;85.00;101739.97;5036569;28;20041;-73
2022/02/22 01:21:57;;;;;;;33.35;4.22;;;;;;;5.20;85.26;101733.19;5056803;28;20039;-73
2022/02/22 01:24:23;;;;;;;29.63;3.55;;;;;;;5.08;85.67;101744.47;5039154;28;20036;-72
2022/02/22 01:26:48;;;;;;;28.95;3.92;;;;;;;5.00;86.23;101734.03;5038944;28;20116;-72
2022/02/22 01:29:13;;;;;;;32.85;4.22;;;;;;;4.97;85.50;101733.34;5038781;28;20025;-72
2022/02/22 01:31:39;;;;;;;32.85;4.38;;;;;;;4.91;86.39;101740.75;5056813;28;20025;-73
2022/02/22 01:34:04;;;;;;;30.60;4.40;;;;;;;4.89;86.08;101748.56;5038942;28;20092;-73
2022/02/22 01:36:29;;;;;;;37.97;4.53;;;;;;;4.94;86.01;101748.97;5056774;28;20049;-72
2022/02/22 01:38:55;;;;;;;30.30;4.43;;;;;;;4.88;86.56;101729.00;5056717;28;20020;-73
2022/02/22 01:41:21;;;;;;;32.72;3.90;;;;;;;4.84;86.17;101739.63;5038717;28;20384;-73
2022/02/22 01:43:47;;;;;;;30.50;3.92;;;;;;;4.89;86.00;101740.88;5056692;28;20082;-72
2022/02/22 01:46:13;;;;;;;29.02;4.60;;;;;;;4.91;85.62;101749.22;5056382;28;20484;-73
2022/02/22 01:48:38;;;;;;;31.52;4.05;;;;;;;4.83;86.19;101763.59;5038773;28;20040;-73
2022/02/22 01:51:04;;;;;;;35.25;4.50;;;;;;;4.84;86.08;101760.94;5038622;28;20388;-73
2022/02/22 01:53:29;;;;;;;35.75;4.53;;;;;;;4.80;86.02;101761.28;5038258;28;20075;-73
2022/02/22 01:55:54;;;;;;;29.67;3.97;;;;;;;4.68;86.52;101755.41;5038531;28;20033;-72
2022/02/22 01:58:20;;;;;;;30.83;4.68;;;;;;;4.65;87.21;101753.91;5056390;28;20021;-73
2022/02/22 02:00:46;;;;;;;34.22;3.90;;;;;;;4.61;87.27;101755.13;5056262;28;20410;-73
2022/02/22 02:03:13;;;;;;;31.83;3.90;;;;;;;4.58;87.83;101759.69;5056014;28;20017;-72
2022/02/22 02:05:38;;;;;;;43.95;4.93;;;;;;;4.60;86.83;101753.47;5056033;28;20035;-72
2022/02/22 02:08:04;;;;;;;40.50;4.85;;;;;;;4.57;87.49;101763.97;5056158;28;20403;-73
2022/02/22 02:10:29;;;;;;;31.00;4.80;;;;;;;4.63;87.52;101771.19;5038532;28;20060;-73
2022/02/22 02:12:54;;;;;;;29.13;4.05;;;;;;;4.50;87.88;101771.34;5055857;28;20048;-73
2022/02/22 02:15:20;;;;;;;27.98;3.70;;;;;;;4.49;88.46;101768.91;5037923;28;20049;-73
2022/02/22 02:17:45;;;;;;;32.05;4.38;;;;;;;4.50;87.91;101771.34;5055794;28;20551;-73
2022/02/22 02:20:11;;;;;;;32.00;4.38;;;;;;;4.48;88.13;101780.88;5038000;28;20027;-73
2022/02/22 02:22:38;;;;;;;31.63;4.53;;;;;;;4.38;89.00;101781.75;5055886;28;20035;-73
2022/02/22 02:25:05;;;;;;;28.17;4.95;;;;;;;4.34;89.40;101781.16;5037940;28;20075;-73
2022/02/22 02:27:31;;;;;;;29.42;4.10;;;;;;;4.42;89.39;101780.56;5055854;28;20033;-73
2022/02/22 02:29:59;;;;;;;30.48;3.40;;;;;;;4.31;89.27;101771.16;5055243;28;20021;-73
2022/02/22 02:32:25;;;;;;;36.20;4.38;;;;;;;4.26;89.12;101781.78;5055455;28;20029;-73
2022/02/22 02:34:51;;;;;;;32.92;4.30;;;;;;;4.29;89.66;101770.50;5055648;28;20032;-73
2022/02/22 02:37:16;;;;;;;45.25;4.28;;;;;;;4.33;89.17;101771.88;5055535;28;20468;-73
2022/02/22 02:39:41;;;;;;;36.38;4.43;;;;;;;4.32;89.07;101770.25;5055590;28;20020;-73
2022/02/22 02:42:07;;;;;;;39.42;4.03;;;;;;;4.34;90.11;101768.34;5055656;28;20387;-73
2022/02/22 02:44:32;;;;;;;32.78;3.45;;;;;;;4.34;89.57;101765.00;5037513;28;20033;-73
2022/02/22 02:46:58;;;;;;;30.15;3.75;;;;;;;4.32;90.10;101760.00;5055425;28;20033;-73
2022/02/22 02:49:23;;;;;;;30.60;3.63;;;;;;;4.30;89.57;101760.13;5055419;28;20368;-73
2022/02/22 02:51:48;;;;;;;33.40;3.85;;;;;;;4.38;89.78;101767.19;5055378;28;20032;-73
2022/02/22 02:54:15;;;;;;;32.58;4.18;;;;;;;4.35;89.08;101764.88;5037402;28;20025;-73
2022/02/22 02:56:40;;;;;;;35.78;4.55;;;;;;;4.36;88.89;101769.06;5055261;28;20493;-72
2022/02/22 02:59:09;;;;;;;28.88;4.35;;;;;;;4.38;89.61;101781.75;5055170;28;20028;-72
2022/02/22 03:01:35;;;;;;;43.55;4.30;;;;;;;4.33;89.72;101773.63;5055194;28;20025;-73
2022/02/22 03:04:01;;;;;;;40.03;4.60;;;;;;;4.32;89.79;101767.69;5055130;28;20025;-73
2022/02/22 03:06:27;;;;;;;33.95;3.88;;;;;;;4.38;89.49;101763.84;5054938;28;20025;-73
2022/02/22 03:08:53;;;;;;;33.55;3.47;;;;;;;4.36;89.44;101758.00;5055144;28;20021;-73
2022/02/22 03:11:18;;;;;;;27.88;3.85;;;;;;;4.34;89.39;101760.69;5055166;28;20025;-73
2022/02/22 03:13:44;;;;;;;25.02;3.33;;;;;;;4.32;89.40;101762.56;5054599;28;20053;-72
2022/02/22 03:16:09;;;;;;;29.45;3.88;;;;;;;4.42;90.26;101772.88;5054763;28;20040;-72
2022/02/22 03:18:35;;;;;;;30.63;3.90;;;;;;;4.34;89.60;101777.78;5036974;28;20017;-73
2022/02/22 03:21:01;;;;;;;37.10;4.22;;;;;;;4.28;90.22;101777.34;5036745;28;20028;-72
2022/02/22 03:23:27;;;;;;;33.35;4.10;;;;;;;4.30;90.06;101780.59;5054778;28;20094;-73
2022/02/22 03:25:52;;;;;;;31.23;4.05;;;;;;;4.40;89.56;101770.47;5020226;28;20471;-71
2022/02/22 03:28:19;;;;;;;29.38;3.53;;;;;;;4.36;89.84;101786.97;5036922;28;20040;-73
2022/02/22 03:30:45;;;;;;;30.73;4.07;;;;;;;4.27;90.70;101774.91;5054678;28;20113;-73
2022/02/22 03:33:10;;;;;;;31.15;4.30;;;;;;;4.33;90.66;101755.69;5054341;28;20039;-74
2022/02/22 03:35:36;;;;;;;25.60;3.50;;;;;;;4.40;89.95;101760.22;5054811;28;20028;-73
2022/02/22 03:38:02;;;;;;;28.63;3.40;;;;;;;4.35;89.85;101775.13;5054650;28;20048;-73
2022/02/22 03:40:27;;;;;;;33.28;3.80;;;;;;;4.27;90.18;101754.44;5054308;28;20033;-73
2022/02/22 03:42:52;;;;;;;27.38;3.97;;;;;;;4.37;89.31;101780.91;5053532;28;20058;-73
2022/02/22 03:45:18;;;;;;;32.65;3.95;;;;;;;4.35;89.34;101776.88;5054324;28;20025;-74
2022/02/22 03:47:43;;;;;;;31.63;4.03;;;;;;;4.41;89.88;101766.94;5054123;28;20430;-73
2022/02/22 03:50:11;;;;;;;32.08;4.25;;;;;;;4.40;89.88;101770.47;5054282;28;20021;-73
2022/02/22 03:52:37;;;;;;;38.97;4.20;;;;;;;4.35;89.91;101777.69;5054189;28;20025;-73
2022/02/22 03:55:04;;;;;;;22.52;3.85;;;;;;;4.33;90.29;101773.63;5054202;28;20021;-73
2022/02/22 03:57:29;;;;;;;30.77;4.18;;;;;;;4.34;90.67;101759.88;5054451;28;20086;-73
2022/02/22 03:59:55;;;;;;;31.48;3.63;;;;;;;4.42;90.25;101772.88;5036420;28;20076;-73
2022/02/22 04:02:20;;;;;;;21.90;3.42;;;;;;;4.35;89.99;101777.69;5053980;28;20103;-73
2022/02/22 04:04:46;;;;;;;33.88;4.18;;;;;;;4.30;90.20;101765.25;5036213;28;20419;-74
2022/02/22 04:07:11;;;;;;;31.17;4.20;;;;;;;4.41;90.14;101792.53;5036106;28;20036;-73
2022/02/22 04:09:37;;;;;;;30.55;3.60;;;;;;;4.49;90.26;101787.63;5053880;28;20449;-74
2022/02/22 04:12:02;;;;;;;35.35;4.43;;;;;;;4.50;89.93;101786.69;5053917;28;20480;-74
2022/02/22 04:14:28;;;;;;;24.02;3.63;;;;;;;4.52;89.96;101801.94;5053818;28;20060;-73
2022/02/22 04:16:53;;;;;;;26.00;3.70;;;;;;;4.45;90.01;101795.66;5053769;28;20020;-73
2022/02/22 04:19:19;;;;;;;38.40;4.53;;;;;;;4.44;90.43;101791.50;5053772;28;20035;-73
2022/02/22 04:21:44;;;;;;;28.38;3.67;;;;;;;4.45;89.75;101780.31;5053971;28;20483;-73
2022/02/22 04:24:09;;;;;;;36.83;4.70;;;;;;;4.39;89.91;101796.97;5054043;28;20372;-74
2022/02/22 04:26:34;;;;;;;29.35;3.75;;;;;;;4.35;90.12;101789.66;5035932;28;20025;-73
2022/02/22 04:29:00;;;;;;;34.95;3.95;;;;;;;4.40;90.12;101784.97;5053637;28;20025;-73
2022/02/22 04:31:33;;;;;;;44.35;4.68;;;;;;;4.40;90.02;101783.25;5035588;28;20016;-73
2022/02/22 04:33:59;;;;;;;31.48;3.47;;;;;;;4.34;89.92;101778.59;5035425;28;20040;-73
2022/02/22 04:36:24;;;;;;;37.22;4.05;;;;;;;4.26;90.22;101783.53;5035605;28;20043;-73
2022/02/22 04:38:50;;;;;;;34.38;4.25;;;;;;;4.32;89.89;101785.59;5053591;28;20104;-73
2022/02/22 04:41:15;;;;;;;26.13;3.83;;;;;;;4.33;90.61;101802.56;5035967;28;20024;-73
2022/02/22 04:43:40;;;;;;;30.30;4.63;;;;;;;4.26;91.05;101798.88;5053775;28;20029;-73
2022/02/22 04:46:06;;;;;;;22.35;3.63;;;;;;;4.30;90.76;101800.25;5035607;28;20023;-73
2022/02/22 04:48:31;;;;;;;28.38;3.53;;;;;;;4.29;91.25;101798.66;5053412;28;20127;-73
2022/02/22 04:50:56;;;;;;;35.83;4.13;;;;;;;4.25;90.63;101789.56;5035820;28;20021;-73
2022/02/22 04:53:21;;;;;;;32.42;3.95;;;;;;;4.15;91.23;101797.16;5036298;28;20029;-73
2022/02/22 04:55:47;;;;;;;31.63;3.17;;;;;;;4.14;91.72;101799.81;5057138;28;20452;-74
2022/02/22 04:58:12;;;;;;;31.20;3.88;;;;;;;3.97;91.96;101784.06;5039507;28;20033;-74
2022/02/22 05:00:37;;;;;;;25.25;3.83;;;;;;;4.02;92.20;101791.34;5057464;28;20072;-73
2022/02/22 05:03:03;;;;;;;33.58;4.05;;;;;;;4.02;92.18;101797.28;5057364;28;20051;-74
2022/02/22 05:05:28;;;;;;;24.13;3.63;;;;;;;4.13;92.57;101795.66;5039380;28;20032;-74
2022/02/22 05:07:53;;;;;;;21.02;3.13;;;;;;;4.04;91.81;101784.38;5057264;28;20029;-72
2022/02/22 05:10:18;;;;;;;37.17;4.78;;;;;;;4.10;92.84;101789.03;5057066;28;20032;-73
2022/02/22 05:12:44;;;;;;;29.38;3.60;;;;;;;4.10;92.49;101790.78;5057107;28;20361;-73
2022/02/22 05:15:09;;;;;;;29.55;4.00;;;;;;;4.05;92.58;101780.88;5056837;28;20128;-73
2022/02/22 05:17:35;;;;;;;29.77;4.63;;;;;;;4.02;92.07;101781.94;5038837;28;20444;-73
2022/02/22 05:20:00;;;;;;;30.05;4.15;;;;;;;4.01;92.54;101788.00;5038972;28;20017;-73
2022/02/22 05:22:26;;;;;;;30.67;3.97;;;;;;;4.07;92.85;101787.50;5056940;28;20107;-72
2022/02/22 05:24:51;;;;;;;23.90;4.07;;;;;;;3.94;92.59;101783.47;5038993;28;20418;-72
2022/02/22 05:27:16;;;;;;;26.38;4.10;;;;;;;3.96;93.60;101782.41;5038869;28;20226;-72
2022/02/22 05:29:42;;;;;;;29.33;3.42;;;;;;;3.94;93.53;101783.47;5056717;28;20437;-74
2022/02/22 05:32:08;;;;;;;27.48;3.58;;;;;;;4.06;93.49;101792.75;5056768;28;20039;-74
2022/02/22 05:34:34;;;;;;;30.92;3.75;;;;;;;4.04;92.85;101790.31;5056563;28;20083;-74
2022/02/22 05:37:00;;;;;;;33.15;3.50;;;;;;;4.09;92.50;101791.72;5056692;28;20025;-73
2022/02/22 05:39:25;;;;;;;30.75;3.42;;;;;;;4.09;92.30;101784.84;5056596;28;20023;-73
2022/02/22 05:41:50;;;;;;;22.85;3.65;;;;;;;4.12;92.09;101782.06;5056839;28;20352;-73
2022/02/22 05:44:16;;;;;;;32.75;3.75;;;;;;;4.04;92.28;101784.38;5038520;28;20085;-73
2022/02/22 05:46:41;;;;;;;28.95;3.97;;;;;;;4.07;92.49;101771.34;5056489;28;20033;-73
2022/02/22 05:49:06;;;;;;;22.38;3.50;;;;;;;4.03;92.58;101770.78;5056484;28;20033;-73
2022/02/22 05:51:32;;;;;;;38.67;4.82;;;;;;;4.06;92.61;101773.09;5056933;28;20020;-73
2022/02/22 05:53:57;;;;;;;28.98;4.50;;;;;;;3.97;92.59;101762.75;5057647;28;20035;-74
2022/02/22 05:56:22;;;;;;;24.35;3.30;;;;;;;4.01;92.49;101764.16;5055081;28;20029;-73
2022/02/22 05:58:47;;;;;;;28.35;3.67;;;;;;;3.96;93.05;101773.94;5055021;28;20024;-73
2022/02/22 06:01:13;;;;;;;29.20;4.25;;;;;;;3.97;92.42;101770.44;5037696;28;20032;-73
2022/02/22 06:03:38;;;;;;;31.23;3.78;;;;;;;3.96;93.53;101761.97;5038201;28;20476;-72
2022/02/22 06:06:03;;;;;;;22.17;3.28;;;;;;;4.03;92.64;101763.13;5054588;28;20029;-73
2022/02/22 06:08:29;;;;;;;25.90;3.30;;;;;;;4.02;92.55;101756.34;5056112;28;20037;-73
2022/02/22 06:10:55;;;;;;;26.55;3.10;;;;;;;3.97;92.79;101755.09;5055159;28;20025;-73
2022/02/22 06:13:20;;;;;;;23.80;3.55;;;;;;;4.01;92.73;101759.06;5036584;28;20032;-73
2022/02/22 06:15:46;;;;;;;26.45;3.28;;;;;;;4.04;93.43;101759.63;5054671;28;20025;-73
2022/02/22 06:18:11;;;;;;;23.52;3.03;;;;;;;4.10;93.64;101754.97;5036690;28;20423;-73
2022/02/22 06:20:39;;;;;;;30.17;4.03;;;;;;;4.24;92.98;101749.56;5036701;28;20025;-72
2022/02/22 06:23:05;;;;;;;25.63;3.25;;;;;;;4.28;92.76;101745.81;5054548;28;20025;-73
2022/02/22 06:25:32;;;;;;;25.60;3.20;;;;;;;4.05;92.58;101738.22;5053232;28;20203;-79
2022/02/22 06:27:58;;;;;;;27.02;3.60;;;;;;;4.02;92.77;101742.75;5053596;28;20037;-76
2022/02/22 06:30:25;;;;;;;28.85;3.95;;;;;;;4.05;92.95;101747.63;5072480;28;20034;-77
2022/02/22 06:32:51;;;;;;;27.60;3.30;;;;;;;4.12;93.26;101748.00;5046363;28;20028;-73
2022/02/22 06:35:18;;;;;;;32.22;3.85;;;;;;;4.05;93.80;101756.13;5059096;28;20024;-73
2022/02/22 06:37:43;;;;;;;28.13;3.38;;;;;;;4.05;93.39;101760.44;5037899;28;20051;-73
2022/02/22 06:40:09;;;;;;;32.17;3.72;;;;;;;4.06;93.17;101754.41;5055724;28;20025;-74
2022/02/22 06:42:35;;;;;;;21.40;3.92;;;;;;;4.05;93.18;101755.31;5037951;28;20028;-73
2022/02/22 06:45:01;;;;;;;23.33;3.88;;;;;;;4.00;93.28;101750.56;5057840;28;20004;-73
2022/02/22 06:47:26;;;;;;;26.15;3.30;;;;;;;4.01;93.23;101752.19;5055679;28;20086;-73
2022/02/22 06:49:51;;;;;;;32.70;3.67;;;;;;;4.11;93.58;101749.72;5056482;28;20109;-72
2022/02/22 06:52:18;;;;;;;21.20;3.40;;;;;;;4.22;93.30;101746.31;5037688;28;20021;-72
2022/02/22 06:54:44;;;;;;;31.05;3.33;;;;;;;4.24;93.36;101749.56;5054878;28;20052;-73
2022/02/22 06:57:09;;;;;;;28.25;3.15;;;;;;;4.25;93.49;101740.94;5056089;28;20059;-74
2022/02/22 06:59:34;;;;;;;27.17;3.50;;;;;;;4.30;93.16;101738.84;5037427;28;20017;-74
2022/02/22 07:02:00;;;;;;;22.30;3.45;;;;;;;4.44;94.08;101737.75;5037398;28;20440;-74
2022/02/22 07:04:25;;;;;;;20.35;3.00;;;;;;;4.50;93.44;101743.19;5037423;28;20205;-74
2022/02/22 07:06:50;;;;;;;22.17;3.55;;;;;;;4.66;93.67;101740.19;5037397;28;20020;-73
2022/02/22 07:09:15;;;;;;;27.17;4.03;;;;;;;4.90;93.78;101732.25;5036883;28;20024;-73
2022/02/22 07:11:41;;;;;;;27.80;4.60;;;;;;;5.00;92.78;101728.91;5065139;28;20101;-73
2022/02/22 07:14:06;;;;;;;23.33;3.97;;;;;;;5.15;93.10;101740.44;5054905;28;20053;-73
2022/02/22 07:16:31;;;;;;;27.63;4.00;;;;;;;5.34;92.90;101725.16;5055181;28;20048;-73
2022/02/22 07:18:57;;;;;;;18.27;3.53;;;;;;;5.42;92.05;101725.34;5054986;28;20021;-74
2022/02/22 07:21:23;;;;;;;21.65;4.10;;;;;;;5.44;92.15;101725.22;5036999;28;20032;-73
2022/02/22 07:23:49;;;;;;;25.25;4.00;;;;;;;5.34;92.31;101721.78;5036626;28;20028;-74
2022/02/22 07:26:15;;;;;;;21.95;3.78;;;;;;;5.32;91.69;101727.06;5037214;28;20056;-74
2022/02/22 07:28:40;;;;;;;19.17;3.55;;;;;;;5.27;92.20;101710.44;5054571;28;20723;-74
2022/02/22 07:31:06;;;;;;;29.63;3.78;;;;;;;5.28;92.36;101717.19;5054805;28;20115;-74
2022/02/22 07:33:33;;;;;;;23.95;3.50;;;;;;;5.38;91.65;101718.84;5036980;28;20490;-75
2022/02/22 07:35:58;;;;;;;20.63;3.60;;;;;;;5.31;92.02;101720.31;5040402;28;20063;-74
2022/02/22 07:38:23;;;;;;;18.33;3.63;;;;;;;5.32;91.47;101710.84;5054516;28;20480;-74
2022/02/22 07:40:49;;;;;;;21.38;3.55;;;;;;;5.23;91.48;101702.19;5055081;28;20055;-75
2022/02/22 07:43:14;;;;;;;28.95;4.40;;;;;;;5.28;91.24;101702.63;5054590;28;20104;-74
2022/02/22 07:45:39;;;;;;;17.13;3.08;;;;;;;5.36;90.88;101694.28;5054666;28;20388;-74
2022/02/22 07:48:04;;;;;;;25.25;3.38;;;;;;;5.45;90.47;101705.50;5054501;28;20029;-73
2022/02/22 07:50:31;;;;;;;28.67;3.67;;;;;;;5.45;90.58;101693.50;5037517;28;20029;-74
2022/02/22 07:52:56;;;;;;;18.20;3.10;;;;;;;5.56;89.93;101690.03;5054117;28;20108;-74
2022/02/22 07:55:21;;;;;;;25.15;3.25;;;;;;;5.66;89.43;101686.53;5036377;28;20064;-74
2022/02/22 07:57:46;;;;;;;24.15;3.72;;;;;;;5.77;89.67;101687.34;5056309;28;20110;-74
2022/02/22 08:00:12;;;;;;;23.25;3.53;;;;;;;5.81;89.11;101681.84;5036021;28;20013;-73
2022/02/22 08:02:38;;;;;;;17.75;3.08;;;;;;;5.76;89.68;101686.56;5053612;28;20055;-74
2022/02/22 08:05:04;;;;;;;28.20;3.60;;;;;;;5.73;89.29;101673.19;5045429;28;20020;-75
2022/02/22 08:07:29;;;;;;;20.80;2.75;;;;;;;5.91;88.87;101684.41;5068162;28;20033;-73
2022/02/22 08:09:55;;;;;;;19.65;3.10;;;;;;;5.80;89.02;101681.97;5065986;28;20013;-75
2022/02/22 08:12:20;;;;;;;21.58;4.05;;;;;;;5.79;89.28;101678.59;5053676;28;20092;-76
2022/02/22 08:14:46;;;;;;;18.52;3.00;;;;;;;5.89;89.43;101676.81;5057548;28;20045;-74
2022/02/22 08:17:11;;;;;;;26.42;3.80;;;;;;;5.91;89.63;101679.28;5053972;28;20491;-72
2022/02/22 08:19:36;;;;;;;26.13;3.30;;;;;;;5.93;88.91;101669.72;5052817;28;20099;-74
2022/02/22 08:22:02;;;;;;;23.10;3.50;;;;;;;6.08;88.73;101663.22;5035438;28;20021;-75
2022/02/22 08:24:27;;;;;;;29.48;3.60;;;;;;;6.29;88.46;101647.66;5054123;28;20079;-73
2022/02/22 08:26:55;;;;;;;28.75;3.92;;;;;;;6.55;86.99;101649.66;5054431;28;20430;-74
2022/02/22 08:29:22;;;;;;;24.58;3.75;;;;;;;6.63;86.23;101642.06;5053361;28;20021;-72
2022/02/22 08:31:47;;;;;;;30.25;4.20;;;;;;;6.66;85.85;101644.34;5035441;28;20025;-72
2022/02/22 08:34:12;;;;;;;19.45;3.30;;;;;;;6.78;85.86;101640.66;5053847;28;20112;-71
2022/02/22 08:36:37;;;;;;;24.70;3.80;;;;;;;6.78;85.68;101632.94;5054622;28;20095;-71
2022/02/22 08:39:03;;;;;;;25.42;3.67;;;;;;;6.94;85.17;101621.28;5057053;28;20018;-71
2022/02/22 08:41:29;;;;;;;23.63;4.55;;;;;;;7.03;85.61;101627.31;5055432;28;20017;-72
2022/02/22 08:43:54;;;;;;;25.45;4.65;;;;;;;7.11;84.65;101619.72;5060239;28;20367;-74
2022/02/22 08:46:22;;;;;;;23.45;4.10;;;;;;;7.15;85.21;101621.84;5058322;28;20153;-73
2022/02/22 08:48:47;;;;;;;31.13;4.95;;;;;;;7.17;85.17;101607.09;5038821;28;20133;-73
2022/02/22 08:51:13;;;;;;;29.13;4.32;;;;;;;7.40;84.70;101604.09;5057247;28;20104;-73
2022/02/22 08:53:38;;;;;;;25.08;4.20;;;;;;;7.39;84.17;101592.19;5038645;28;20048;-73
2022/02/22 08:56:07;;;;;;;30.67;4.75;;;;;;;7.50;84.91;101594.53;5057448;28;20064;-74
2022/02/22 08:58:33;;;;;;;27.60;4.63;;;;;;;7.38;84.28;101586.25;5038555;28;20049;-70
2022/02/22 09:00:59;;;;;;;24.13;4.10;;;;;;;7.11;85.78;101578.59;5039176;28;20032;-71
2022/02/22 09:03:25;;;;;;;32.65;4.47;;;;;;;7.29;85.54;101591.47;5054971;28;20095;-72
2022/02/22 09:05:50;;;;;;;26.58;4.28;;;;;;;7.20;85.68;101575.13;5036919;28;20439;-72
2022/02/22 09:08:15;;;;;;;30.67;5.32;;;;;;;7.03;86.41;101573.34;5054831;28;20033;-73
2022/02/22 09:10:41;;;;;;;26.90;4.40;;;;;;;7.08;85.83;101574.53;5037911;28;20085;-72
2022/02/22 09:13:07;;;;;;;27.13;4.43;;;;;;;7.21;86.34;101559.56;5055118;28;20028;-71
2022/02/22 09:15:32;;;;;;;28.50;4.47;;;;;;;7.21;86.68;101564.69;5032335;28;20498;-72
2022/02/22 09:18:00;;;;;;;24.55;5.00;;;;;;;7.24;86.29;101554.13;5035531;28;20029;-71
2022/02/22 09:20:25;;;;;;;24.90;4.15;;;;;;;7.07;86.71;101554.09;5033306;28;20024;-71
2022/02/22 09:22:51;;;;;;;20.50;4.15;;;;;;;7.10;87.39;101557.19;5033764;28;20516;-71
2022/02/22 09:25:18;;;;;;;28.70;4.20;;;;;;;7.13;87.28;101566.38;5032151;28;20507;-72
2022/02/22 09:27:45;;;;;;;23.23;4.35;;;;;;;7.14;87.01;101565.44;5033538;28;20099;-71
2022/02/22 09:30:14;;;;;;;32.92;4.68;;;;;;;6.94;87.93;101575.03;5033144;28;20455;-71
2022/02/22 09:32:40;;;;;;;29.55;4.60;;;;;;;6.91;87.08;101558.13;5034295;28;20017;-74
2022/02/22 09:35:06;;;;;;;29.13;4.20;;;;;;;7.16;86.12;101572.06;5034758;28;20449;-71
2022/02/22 09:37:32;;;;;;;30.80;5.80;;;;;;;7.08;86.66;101579.69;5032743;28;20065;-71
2022/02/22 09:39:57;;;;;;;28.90;5.18;;;;;;;7.03;86.86;101584.44;5032325;28;20025;-70
2022/02/22 09:42:25;;;;;;;29.52;4.68;;;;;;;7.03;86.93;101591.34;5036065;28;20025;-71
2022/02/22 09:44:51;;;;;;;30.58;4.72;;;;;;;7.06;88.30;101586.72;5034883;28;20028;-72
2022/02/22 09:47:17;;;;;;;24.75;4.38;;;;;;;7.17;86.77;101607.09;5034584;28;20029;-71
2022/02/22 09:49:42;;;;;;;28.77;4.90;;;;;;;7.40;85.39;101607.47;5035815;28;20025;-71
2022/02/22 09:52:07;;;;;;;30.27;5.35;;;;;;;7.28;85.95;101603.50;5036064;28;20060;-72
2022/02/22 09:54:33;;;;;;;31.73;5.00;;;;;;;7.44;85.40;101605.41;5034400;28;20388;-71
2022/02/22 09:56:59;;;;;;;27.52;4.63;;;;;;;7.35;85.04;101607.09;5035592;28;20532;-71
2022/02/22 09:59:24;;;;;;;22.33;4.63;;;;;;;7.04;86.18;101586.03;5034311;28;20021;-71
2022/02/22 10:01:52;;;;;;;36.15;5.15;;;;;;;7.26;85.62;101586.59;5034156;28;20116;-71
2022/02/22 10:04:18;;;;;;;28.33;4.82;;;;;;;7.06;86.33;101573.88;5032798;28;20097;-72
2022/02/22 10:06:43;;;;;;;30.75;4.82;;;;;;;7.04;85.40;101562.09;5033389;28;20384;-72
2022/02/22 10:09:09;;;;;;;26.30;5.50;;;;;;;7.18;85.24;101529.00;5033762;28;20530;-72
2022/02/22 10:11:45;;;;;;;26.67;5.07;;;;;;;7.46;83.52;101552.09;5034879;28;20025;-71
2022/02/22 10:14:20;;;;;;;27.63;4.82;;;;;;;7.46;83.21;101542.59;5042679;28;20057;-72
2022/02/22 10:16:46;;;;;;;24.48;5.28;;;;;;;7.31;83.25;101538.09;5055629;28;20025;-71
2022/02/22 10:19:15;;;;;;;28.15;4.88;;;;;;;7.34;84.17;101530.13;5055412;28;20376;-71
2022/02/22 10:21:42;;;;;;;28.15;5.82;;;;;;;7.50;82.88;101527.69;5037173;28;20490;-73
2022/02/22 10:24:09;;;;;;;25.67;5.80;;;;;;;7.58;82.87;101517.47;5036951;28;20454;-74
2022/02/22 10:26:35;;;;;;;26.40;5.57;;;;;;;7.58;82.72;101520.03;5037287;28;20464;-74
2022/02/22 10:29:15;;;;;;;25.30;5.22;;;;;;;7.66;82.51;101514.94;5053945;28;20102;-74
2022/02/22 10:31:40;;;;;;;29.50;6.63;;;;;;;7.77;80.82;101507.94;5037111;28;20028;-75
2022/02/22 10:34:06;;;;;;;26.42;5.40;;;;;;;7.70;81.62;101500.00;5054944;28;20472;-74
2022/02/22 10:36:34;;;;;;;30.92;5.60;;;;;;;7.37;82.29;101491.25;5036091;28;20021;-73
2022/02/22 10:39:04;;;;;;;27.05;5.40;;;;;;;7.41;83.47;101495.13;5053556;28;20104;-73
2022/02/22 10:41:38;;;;;;;32.53;6.10;;;;;;;7.51;82.86;101487.31;5036364;28;20116;-73
2022/02/22 10:44:04;;;;;;;23.30;5.68;;;;;;;7.45;84.22;101474.13;5036371;28;20029;-73
2022/02/22 10:46:32;;;;;;;27.88;6.63;;;;;;;7.46;84.39;101480.88;5054417;28;20025;-74
2022/02/22 10:49:12;;;;;;;34.80;6.20;;;;;;;7.22;85.86;101499.50;5035353;28;20040;-73
2022/02/22 10:51:41;;;;;;;27.58;6.25;;;;;;;7.04;86.85;101478.09;5035329;28;20029;-73
2022/02/22 10:54:08;;;;;;;30.45;6.32;;;;;;;7.10;87.96;101489.56;5054167;28;20384;-73
2022/02/22 10:56:35;;;;;;;29.58;6.22;;;;;;;7.07;88.21;101485.50;5054601;28;20383;-73
2022/02/22 10:59:02;;;;;;;32.17;7.00;;;;;;;7.11;89.49;101489.44;5054753;28;20098;-73
2022/02/22 11:01:28;;;;;;;35.80;6.75;;;;;;;7.35;88.07;101488.03;5036785;28;20028;-75
2022/02/22 11:03:54;;;;;;;30.27;6.93;;;;;;;7.07;89.08;101482.94;5036717;28;20515;-74
2022/02/22 11:06:20;;;;;;;35.92;7.22;;;;;;;7.26;89.42;101483.78;5037079;28;20029;-74
2022/02/22 11:08:48;;;;;;;27.63;6.07;;;;;;;7.10;90.58;101469.00;5054725;28;20029;-74
2022/02/22 11:11:17;;;;;;;29.75;6.22;;;;;;;7.16;91.73;101471.81;5037232;28;20116;-74
2022/02/22 11:13:42;;;;;;;24.67;5.72;;;;;;;7.15;91.08;101477.09;5055055;28;20051;-75
2022/02/22 11:16:09;;;;;;;29.40;5.93;;;;;;;7.08;91.16;101461.44;5037350;28;20029;-74
2022/02/22 11:18:44;;;;;;;27.30;5.80;;;;;;;7.15;92.27;101459.09;5055128;28;20080;-74